Time;durP1;ratioP1;P1;durP2;ratioP2;P2;SDS_P1;SDS_P2;PMS_P1;PMS_P2;Temp;Humidity;BMP_temperature;BMP_pressure;BME280_temperature;BME280_humidity;BME280_pressure;Samples;Min_cycle;Max_cycle;Signal;HPM_P1;HPM_P2
2022/12/11 00:00:19;;;;;;;18.97;12.07;;;;;;;-0.73;87.06;101328.31;5005278;28;20680;-73
2022/12/11 00:02:51;;;;;;;22.10;12.60;;;;;;;-0.77;86.71;101320.47;4996539;28;20250;-71
2022/12/11 00:05:40;;;;;;;20.17;12.13;;;;;;;-0.77;87.21;101320.47;5004908;28;20601;-72
2022/12/11 00:08:08;;;;;;;22.17;12.27;;;;;;;-0.76;87.44;101315.56;5002921;28;20882;-71
2022/12/11 00:10:34;;;;;;;21.03;12.90;;;;;;;-0.75;86.83;101317.28;5017043;28;20195;-72
2022/12/11 00:13:02;;;;;;;20.87;12.10;;;;;;;-0.77;86.83;101323.81;5007803;28;20707;-71
2022/12/11 00:15:30;;;;;;;22.43;12.00;;;;;;;-0.76;86.64;101323.09;5001391;28;20199;-70
2022/12/11 00:17:59;;;;;;;22.07;12.37;;;;;;;-0.80;85.81;101322.75;5006449;28;20681;-70
2022/12/11 00:20:27;;;;;;;20.73;12.37;;;;;;;-0.77;86.30;101320.47;5005269;28;20692;-72
2022/12/11 00:22:56;;;;;;;19.93;11.50;;;;;;;-0.78;85.94;101321.25;5024999;28;20657;-71
2022/12/11 00:25:39;;;;;;;19.07;11.03;;;;;;;-0.80;85.67;101321.13;5005609;28;20539;-72
2022/12/11 00:28:10;;;;;;;18.93;11.53;;;;;;;-0.83;84.91;101315.00;5001991;28;20207;-71
2022/12/11 00:30:47;;;;;;;18.87;11.27;;;;;;;-0.82;85.90;101311.72;5007689;28;20191;-72
2022/12/11 00:33:14;;;;;;;21.17;12.27;;;;;;;-0.82;85.02;101314.25;5011549;28;20198;-72
2022/12/11 00:35:42;;;;;;;20.37;11.37;;;;;;;-0.81;85.86;101315.97;5012173;28;20608;-74
2022/12/11 00:38:12;;;;;;;20.40;11.97;;;;;;;-0.82;85.84;101316.75;5008639;28;20193;-73
2022/12/11 00:40:48;;;;;;;20.63;12.20;;;;;;;-0.86;85.65;101312.25;5004080;28;20211;-72
2022/12/11 00:43:16;;;;;;;20.33;11.57;;;;;;;-0.85;85.26;101317.41;5008912;28;20194;-71
2022/12/11 00:45:47;;;;;;;18.07;10.93;;;;;;;-0.84;84.79;101320.78;5016699;28;20593;-71
2022/12/11 00:48:18;;;;;;;18.10;11.27;;;;;;;-0.87;85.22;101316.41;5009569;28;20567;-72
2022/12/11 00:50:52;;;;;;;17.77;11.27;;;;;;;-0.90;84.11;101311.19;5008326;28;20591;-73
2022/12/11 00:53:25;;;;;;;17.53;10.83;;;;;;;-0.87;84.95;101315.56;5008988;28;20716;-73
2022/12/11 00:55:56;;;;;;;17.23;11.07;;;;;;;-0.91;83.96;101314.44;5008774;28;20250;-72
2022/12/11 00:58:22;;;;;;;17.33;10.87;;;;;;;-0.99;83.71;101322.19;5011552;28;20214;-72
2022/12/11 01:00:53;;;;;;;16.53;10.80;;;;;;;-1.05;83.65;101324.28;5010088;28;20214;-72
2022/12/11 01:03:31;;;;;;;20.33;11.50;;;;;;;-1.11;84.09;101319.66;5007991;28;20602;-73
2022/12/11 01:05:57;;;;;;;18.60;11.50;;;;;;;-1.10;84.45;101323.94;5010127;28;20273;-73
2022/12/11 01:08:22;;;;;;;19.73;11.60;;;;;;;-1.10;83.77;101323.06;5011462;28;20277;-73
2022/12/11 01:11:00;;;;;;;18.27;12.07;;;;;;;-1.10;84.14;101323.94;5008819;28;20298;-72
2022/12/11 01:13:26;;;;;;;17.90;10.87;;;;;;;-1.12;84.11;101325.47;5008750;28;20198;-73
2022/12/11 01:15:54;;;;;;;19.13;11.17;;;;;;;-1.12;84.15;101335.50;5009552;28;20198;-72
2022/12/11 01:18:20;;;;;;;17.77;11.10;;;;;;;-1.10;84.72;101325.59;5011177;28;20799;-72
2022/12/11 01:20:52;;;;;;;16.37;10.13;;;;;;;-1.13;84.04;101325.34;5009860;28;20218;-71
2022/12/11 01:23:21;;;;;;;21.30;11.97;;;;;;;-1.07;84.66;101333.31;5017139;28;20210;-73
2022/12/11 01:25:46;;;;;;;18.87;11.43;;;;;;;-1.04;85.11;101329.41;5007730;28;20199;-71
2022/12/11 01:28:12;;;;;;;21.07;12.37;;;;;;;-1.03;85.13;101327.75;5009827;28;20274;-71
2022/12/11 01:30:42;;;;;;;19.67;11.80;;;;;;;-1.03;85.37;101328.66;5005101;28;20677;-72
2022/12/11 01:33:11;;;;;;;20.33;11.27;;;;;;;-0.99;86.06;101325.59;5013877;28;20699;-71
2022/12/11 01:35:40;;;;;;;19.67;11.37;;;;;;;-0.99;85.38;101327.22;5013931;28;20669;-72
2022/12/11 01:38:06;;;;;;;17.67;10.57;;;;;;;-0.97;84.91;101323.16;5005325;28;20687;-72
2022/12/11 01:40:35;;;;;;;21.90;11.00;;;;;;;-0.98;84.95;101326.44;5006681;28;20211;-73
2022/12/11 01:43:01;;;;;;;17.43;10.87;;;;;;;-0.99;84.72;101328.09;5009503;28;20188;-72
2022/12/11 01:45:32;;;;;;;18.53;12.23;;;;;;;-0.94;85.42;101325.91;5010600;28;20206;-71
2022/12/11 01:48:10;;;;;;;17.47;10.57;;;;;;;-0.89;85.86;101325.50;5008964;28;20191;-71
2022/12/11 01:50:57;;;;;;;18.63;12.10;;;;;;;-0.93;84.67;101333.56;5009558;28;20205;-73
2022/12/11 01:53:34;;;;;;;17.53;10.57;;;;;;;-0.94;84.04;101330.94;5003437;28;20183;-71
2022/12/11 01:56:03;;;;;;;18.30;10.70;;;;;;;-0.95;82.89;101334.22;5006868;28;20680;-72
2022/12/11 01:58:34;;;;;;;22.17;11.90;;;;;;;-0.88;83.98;101333.88;5019595;28;20691;-72
2022/12/11 02:01:04;;;;;;;20.00;11.97;;;;;;;-0.88;84.04;101328.84;5020274;28;20203;-72
2022/12/11 02:03:31;;;;;;;23.47;12.27;;;;;;;-0.95;84.36;101325.06;5008377;28;20191;-71
2022/12/11 02:06:03;;;;;;;19.10;11.57;;;;;;;-0.94;84.81;101328.44;5004729;28;20653;-72
2022/12/11 02:08:45;;;;;;;20.67;12.57;;;;;;;-0.93;85.88;101318.50;5006236;28;20183;-72
2022/12/11 02:11:18;;;;;;;20.63;12.10;;;;;;;-0.87;85.38;101325.59;5021372;28;20223;-71
2022/12/11 02:14:13;;;;;;;17.23;10.70;;;;;;;-0.87;85.48;101323.94;5008467;28;20266;-72
2022/12/11 02:16:57;;;;;;;20.33;11.67;;;;;;;-0.88;85.65;101321.31;5006018;28;20644;-70
2022/12/11 02:19:50;;;;;;;18.70;11.27;;;;;;;-0.90;85.18;101316.22;5006080;28;20276;-70
2022/12/11 02:22:38;;;;;;;20.00;11.43;;;;;;;-0.95;83.37;101312.50;5012997;28;20206;-73
2022/12/11 02:25:35;;;;;;;21.17;12.37;;;;;;;-0.91;83.85;101313.59;5008985;28;20194;-71
2022/12/11 02:28:33;;;;;;;19.97;11.27;;;;;;;-0.85;84.85;101321.53;5009605;28;20730;-72
2022/12/11 02:31:09;;;;;;;19.20;11.13;;;;;;;-0.82;85.59;101321.78;5002242;28;20579;-72
2022/12/11 02:33:47;;;;;;;17.07;10.77;;;;;;;-0.84;86.32;101324.19;5000212;28;20758;-71
2022/12/11 02:36:19;;;;;;;21.53;11.97;;;;;;;-0.82;85.77;101320.13;5004441;28;20830;-73
2022/12/11 02:38:54;;;;;;;18.53;11.23;;;;;;;-0.80;85.81;101315.22;5001974;28;20214;-71
2022/12/11 02:41:24;;;;;;;21.20;11.10;;;;;;;-0.87;85.79;101313.03;5004618;28;20238;-72
2022/12/11 02:43:56;;;;;;;19.93;12.03;;;;;;;-0.89;85.62;101307.91;5002225;28;20188;-71
2022/12/11 02:46:33;;;;;;;21.10;12.50;;;;;;;-0.90;85.03;101302.75;5001738;28;20199;-71
2022/12/11 02:49:01;;;;;;;17.83;10.77;;;;;;;-0.90;84.48;101307.78;5022413;28;20191;-72
2022/12/11 02:51:32;;;;;;;18.93;11.67;;;;;;;-0.91;84.75;101309.41;5017260;28;20349;-72
2022/12/11 02:54:01;;;;;;;20.00;12.30;;;;;;;-0.90;85.10;101310.28;5005011;28;20187;-74
2022/12/11 02:56:50;;;;;;;18.73;10.97;;;;;;;-0.89;85.04;101305.38;5002871;28;20187;-72
2022/12/11 02:59:27;;;;;;;19.10;10.87;;;;;;;-0.91;84.88;101303.53;4996544;28;20226;-72
2022/12/11 03:01:53;;;;;;;22.53;11.43;;;;;;;-0.89;86.00;101314.56;5009165;28;20690;-72
2022/12/11 03:04:23;;;;;;;19.70;12.60;;;;;;;-0.88;85.26;101312.16;5013386;28;20302;-72
2022/12/11 03:07:06;;;;;;;20.00;11.13;;;;;;;-0.89;84.91;101315.44;5007146;28;20178;-72
2022/12/11 03:09:34;;;;;;;22.53;12.63;;;;;;;-0.90;84.50;101308.66;5015213;28;20245;-71
2022/12/11 03:12:02;;;;;;;21.03;12.57;;;;;;;-0.91;85.59;101316.94;5005921;28;20235;-72
2022/12/11 03:14:33;;;;;;;21.13;11.80;;;;;;;-0.93;84.78;101313.47;5005094;28;20270;-71
2022/12/11 03:17:13;;;;;;;20.47;11.63;;;;;;;-0.97;83.79;101313.13;5001908;28;20664;-73
2022/12/11 03:19:54;;;;;;;20.23;11.63;;;;;;;-0.98;84.32;101312.25;4999700;28;20213;-71
2022/12/11 03:22:36;;;;;;;22.10;12.23;;;;;;;-1.01;84.19;101309.53;5000769;28;20203;-73
2022/12/11 03:25:08;;;;;;;21.60;12.17;;;;;;;-0.97;84.04;101305.59;5002070;28;20206;-72
2022/12/11 03:27:43;;;;;;;20.40;12.43;;;;;;;-0.96;84.62;101310.72;5019581;28;20691;-71
2022/12/11 03:30:18;;;;;;;20.33;12.20;;;;;;;-0.90;84.38;101316.22;5007992;28;20717;-71
2022/12/11 03:33:22;;;;;;;21.40;11.60;;;;;;;-0.90;85.05;101310.28;5007532;28;20738;-72
2022/12/11 03:35:57;;;;;;;23.57;11.80;;;;;;;-0.92;84.69;101306.81;4989911;28;20294;-72
2022/12/11 03:38:42;;;;;;;21.67;12.30;;;;;;;-0.93;84.10;101313.47;5001300;28;20191;-71
2022/12/11 03:41:24;;;;;;;19.23;12.57;;;;;;;-0.91;84.01;101303.53;5019594;28;20218;-71
2022/12/11 03:43:54;;;;;;;22.40;12.63;;;;;;;-0.89;84.04;101309.53;5007487;28;20191;-71
2022/12/11 03:46:31;;;;;;;21.73;11.60;;;;;;;-0.86;83.81;101315.63;5012537;28;20195;-71
2022/12/11 03:49:04;;;;;;;21.30;12.33;;;;;;;-0.93;82.84;101308.44;5017306;28;20194;-72
2022/12/11 03:51:33;;;;;;;19.07;12.17;;;;;;;-0.94;82.90;101305.81;5009328;28;20684;-73
2022/12/11 03:54:02;;;;;;;21.37;12.53;;;;;;;-0.97;83.21;101316.50;5011439;28;20199;-71
2022/12/11 03:56:39;;;;;;;20.20;11.93;;;;;;;-0.92;84.19;101309.31;5009664;28;20195;-71
2022/12/11 03:59:08;;;;;;;22.83;12.77;;;;;;;-0.87;84.65;101311.38;5010498;28;20223;-71
2022/12/11 04:01:36;;;;;;;20.40;12.13;;;;;;;-0.90;83.93;101302.75;5012104;28;20680;-71
2022/12/11 04:04:05;;;;;;;22.07;12.73;;;;;;;-0.93;83.97;101292.47;5018730;28;20195;-71
2022/12/11 04:06:33;;;;;;;20.13;12.23;;;;;;;-0.95;83.71;101301.56;5007978;28;20222;-72
2022/12/11 04:08:59;;;;;;;19.20;12.00;;;;;;;-0.93;83.55;101305.03;5011488;28;20183;-71
2022/12/11 04:11:33;;;;;;;20.20;12.87;;;;;;;-0.93;83.93;101298.38;5009868;28;20233;-72
2022/12/11 04:16:49;;;;;;;21.43;12.80;;;;;;;-0.90;84.31;101293.59;5011140;28;20218;-70
2022/12/11 04:24:50;;;;;;;19.50;11.40;;;;;;;-0.97;82.75;101296.41;5005789;28;20195;-70
2022/12/11 04:30:08;;;;;;;20.77;11.63;;;;;;;-0.94;83.61;101288.22;5006893;28;20187;-70
2022/12/11 04:32:39;;;;;;;17.70;11.03;;;;;;;-0.94;83.68;101290.75;5011214;28;20826;-71
2022/12/11 04:35:09;;;;;;;17.17;10.57;;;;;;;-0.92;83.08;101292.59;5008068;28;20684;-71
2022/12/11 04:37:36;;;;;;;19.07;11.47;;;;;;;-0.92;83.37;101295.09;5006944;28;20193;-71
2022/12/11 04:40:10;;;;;;;13.90;9.33;;;;;;;-0.93;82.61;101295.00;5006908;28;20483;-70
2022/12/11 04:42:44;;;;;;;17.60;10.47;;;;;;;-0.97;81.98;101288.00;5007342;28;20749;-70
2022/12/11 04:45:17;;;;;;;19.03;10.80;;;;;;;-1.08;81.57;101296.41;5005686;28;20193;-70
2022/12/11 04:47:59;;;;;;;16.27;10.50;;;;;;;-1.10;81.62;101296.28;5009157;28;20202;-71
2022/12/11 04:50:35;;;;;;;16.07;9.53;;;;;;;-1.12;80.62;101294.44;5006822;28;20712;-71
2022/12/11 04:53:01;;;;;;;17.60;10.50;;;;;;;-1.11;81.83;101296.19;5010434;28;20191;-71
2022/12/11 04:55:30;;;;;;;16.20;10.50;;;;;;;-1.11;81.94;101294.56;5011158;28;20187;-70
2022/12/11 04:57:59;;;;;;;17.60;10.40;;;;;;;-1.08;82.39;101299.81;5002881;28;20191;-71
2022/12/11 05:00:26;;;;;;;20.33;11.53;;;;;;;-1.09;83.32;101298.03;5007290;28;20212;-70
2022/12/11 05:03:03;;;;;;;18.60;10.57;;;;;;;-1.09;83.12;101297.19;5007151;28;20195;-70
2022/12/11 05:05:32;;;;;;;18.13;11.17;;;;;;;-1.10;83.15;101287.91;5004113;28;20187;-72
2022/12/11 05:07:58;;;;;;;18.50;11.00;;;;;;;-1.14;82.66;101289.31;5023249;28;20274;-70
2022/12/11 05:10:32;;;;;;;18.13;11.17;;;;;;;-1.15;82.76;101291.72;5004814;28;20271;-70
2022/12/11 05:12:58;;;;;;;18.57;10.97;;;;;;;-1.14;83.09;101285.94;5006304;28;20210;-70
2022/12/11 05:15:24;;;;;;;16.87;10.33;;;;;;;-1.13;83.53;101278.50;5006321;28;20284;-71
2022/12/11 05:17:55;;;;;;;16.03;9.93;;;;;;;-1.14;83.50;101280.91;5001420;28;20219;-71
2022/12/11 05:20:26;;;;;;;17.23;10.73;;;;;;;-1.13;82.94;101282.66;5004312;28;20202;-71
2022/12/11 05:22:52;;;;;;;18.40;10.57;;;;;;;-1.14;83.12;101281.75;5002423;28;20192;-71
2022/12/11 05:25:21;;;;;;;18.17;10.73;;;;;;;-1.20;83.12;101280.44;5001477;28;20195;-71
2022/12/11 05:27:50;;;;;;;19.07;11.57;;;;;;;-1.21;82.99;101279.59;5006008;28;20196;-71
2022/12/11 05:30:23;;;;;;;20.57;11.43;;;;;;;-1.26;83.53;101275.00;5009224;28;20194;-71
2022/12/11 05:33:03;;;;;;;19.70;11.67;;;;;;;-1.26;84.69;101275.88;5003199;28;20203;-71
2022/12/11 05:35:29;;;;;;;19.33;10.57;;;;;;;-1.23;84.55;101277.75;5009947;28;20194;-70
2022/12/11 05:38:03;;;;;;;19.67;12.00;;;;;;;-1.27;84.83;101276.66;5009363;28;20187;-71
2022/12/11 05:40:31;;;;;;;20.27;12.37;;;;;;;-1.28;84.84;101282.41;5009507;28;20264;-71
2022/12/11 05:42:57;;;;;;;20.83;11.70;;;;;;;-1.33;85.14;101278.69;5008625;28;20183;-70
2022/12/11 05:45:29;;;;;;;20.63;11.20;;;;;;;-1.37;85.35;101278.38;5008493;28;20663;-70
2022/12/11 05:47:55;;;;;;;19.53;10.43;;;;;;;-1.46;85.57;101275.19;5008222;28;20270;-71
2022/12/11 05:50:29;;;;;;;18.70;10.57;;;;;;;-1.53;86.14;101280.50;5008873;28;20187;-71
2022/12/11 05:53:00;;;;;;;18.40;11.40;;;;;;;-1.55;86.34;101277.03;5008416;28;20188;-72
2022/12/11 05:55:31;;;;;;;18.50;10.50;;;;;;;-1.60;86.52;101279.19;5006733;28;20196;-71
2022/12/11 05:58:15;;;;;;;18.63;10.57;;;;;;;-1.68;86.80;101282.78;5007159;28;20807;-71
2022/12/11 06:00:54;;;;;;;19.43;11.03;;;;;;;-1.76;86.90;101291.38;5007018;28;20244;-71
2022/12/11 06:03:32;;;;;;;;;;;;;;;;;;;;;
2022/12/11 06:06:25;;;;;;;18.73;10.57;;;;;;;-1.90;88.08;101289.47;5003543;28;20195;-71
2022/12/11 06:09:16;;;;;;;17.50;10.07;;;;;;;-2.00;88.46;101293.69;5007035;28;20183;-71
2022/12/11 06:11:47;;;;;;;18.53;10.70;;;;;;;-2.00;88.55;101292.06;5004168;28;20238;-70
2022/12/11 06:14:13;;;;;;;18.63;11.20;;;;;;;-2.12;88.68;101291.13;5007889;28;20186;-72
2022/12/11 06:16:54;;;;;;;;;;;;;;;;;;;;;
2022/12/11 06:19:26;;;;;;;20.37;11.50;;;;;;;-2.19;88.62;101298.94;5007638;28;20687;-71
2022/12/11 06:21:57;;;;;;;22.67;11.03;;;;;;;-2.24;88.87;101307.75;5007847;28;20573;-70
2022/12/11 06:24:29;;;;;;;16.57;9.63;;;;;;;-2.25;88.96;101307.63;5007570;28;20198;-71
2022/12/11 06:27:00;;;;;;;18.40;10.73;;;;;;;-2.30;89.13;101308.91;5006686;28;20675;-71
2022/12/11 06:29:26;;;;;;;19.93;10.83;;;;;;;-2.32;89.16;101303.78;5005565;28;20641;-71
2022/12/11 06:31:52;;;;;;;20.50;11.00;;;;;;;-2.32;89.50;101305.38;5004474;28;20261;-71
2022/12/11 06:34:23;;;;;;;19.27;10.53;;;;;;;-2.33;89.40;101302.03;5004135;28;20197;-72
2022/12/11 06:36:52;;;;;;;20.37;10.70;;;;;;;-2.43;89.39;101307.06;5002054;28;20755;-73
2022/12/11 06:39:19;;;;;;;21.17;11.17;;;;;;;-2.51;89.79;101303.13;5007433;28;20302;-73
2022/12/11 06:41:45;;;;;;;22.93;11.80;;;;;;;-2.52;89.74;101297.97;5009699;28;20211;-71
2022/12/11 06:44:19;;;;;;;19.97;11.00;;;;;;;-2.55;89.57;101305.25;5010051;28;20202;-72
2022/12/11 06:46:48;;;;;;;20.67;11.30;;;;;;;-2.59;90.27;101303.25;5008176;28;20195;-70
2022/12/11 06:49:19;;;;;;;19.93;10.37;;;;;;;-2.62;90.11;101303.03;5009977;28;20210;-71
2022/12/11 06:51:50;;;;;;;20.50;11.20;;;;;;;-2.72;90.36;101298.06;5002635;28;20211;-71
2022/12/11 06:54:18;;;;;;;22.13;12.00;;;;;;;-2.81;90.44;101304.88;5002125;28;20188;-71
2022/12/11 06:56:47;;;;;;;24.73;12.37;;;;;;;-2.88;89.97;101306.00;5000402;28;20187;-71
2022/12/11 06:59:17;;;;;;;22.53;11.70;;;;;;;-2.92;90.18;101308.13;5004168;28;20218;-71
2022/12/11 07:01:47;;;;;;;26.30;13.53;;;;;;;-2.94;90.16;101317.16;5003878;28;20211;-72
2022/12/11 07:04:17;;;;;;;24.37;12.30;;;;;;;-3.06;90.17;101314.56;5001392;28;20237;-70
2022/12/11 07:06:46;;;;;;;24.67;12.27;;;;;;;-3.11;90.86;101312.44;4998334;28;20245;-72
2022/12/11 07:09:17;;;;;;;21.67;12.13;;;;;;;-3.10;90.46;101316.69;5002751;28;20183;-72
2022/12/11 07:11:48;;;;;;;19.87;10.93;;;;;;;-3.03;90.95;101326.44;5003441;28;20207;-72
2022/12/11 07:14:14;;;;;;;22.20;10.93;;;;;;;-3.04;91.10;101329.72;5007300;28;20261;-72
2022/12/11 07:16:42;;;;;;;23.43;11.47;;;;;;;-3.08;90.96;101333.56;5011534;28;20623;-73
2022/12/11 07:19:08;;;;;;;23.33;12.53;;;;;;;-3.13;90.92;101339.84;5001601;28;20238;-73
2022/12/11 07:21:37;;;;;;;23.30;11.77;;;;;;;-3.12;90.77;101341.59;5012955;28;20708;-72
2022/12/11 07:24:06;;;;;;;24.53;12.63;;;;;;;-3.17;90.82;101342.00;5011874;28;20253;-71
2022/12/11 07:26:42;;;;;;;22.20;11.57;;;;;;;-3.24;91.21;101347.25;5010660;28;20249;-72
2022/12/11 07:29:14;;;;;;;23.93;12.10;;;;;;;-3.30;90.65;101361.75;5008917;28;20179;-72
2022/12/11 07:31:40;;;;;;;22.57;12.23;;;;;;;-3.35;90.72;101356.38;5005774;28;20325;-71
2022/12/11 07:34:12;;;;;;;21.47;11.90;;;;;;;-3.41;90.68;101362.53;5007736;28;20187;-71
2022/12/11 07:36:39;;;;;;;22.20;12.07;;;;;;;-3.41;90.60;101360.88;5008485;28;20265;-72
2022/12/11 07:39:08;;;;;;;21.50;11.57;;;;;;;-3.47;90.24;101357.88;5008251;28;20469;-70
2022/12/11 07:41:36;;;;;;;20.10;11.37;;;;;;;-3.51;90.37;101358.38;5008749;28;20293;-71
2022/12/11 07:44:12;;;;;;;22.40;11.67;;;;;;;-3.55;90.04;101351.38;5022565;28;20970;-71
2022/12/11 07:46:45;;;;;;;23.13;11.80;;;;;;;-3.50;90.13;101350.13;5007545;28;20189;-71
2022/12/11 07:49:11;;;;;;;21.47;11.53;;;;;;;-3.54;90.00;101350.59;5008454;28;20895;-70
2022/12/11 07:51:38;;;;;;;22.93;11.80;;;;;;;-3.56;90.49;101349.63;5005280;28;20531;-71
2022/12/11 07:54:15;;;;;;;21.13;12.03;;;;;;;-3.56;90.40;101346.22;5012761;28;20553;-71
2022/12/11 07:56:46;;;;;;;21.40;11.53;;;;;;;-3.60;90.34;101339.22;5012333;28;20535;-71
2022/12/11 07:59:13;;;;;;;22.83;12.50;;;;;;;-3.63;90.39;101344.00;5017034;28;20211;-73
2022/12/11 08:01:48;;;;;;;22.37;12.10;;;;;;;-3.61;90.43;101348.38;5009203;28;20475;-73
2022/12/11 08:04:25;;;;;;;25.97;13.07;;;;;;;-3.61;90.96;101342.47;5010916;28;20709;-71
2022/12/11 08:06:51;;;;;;;22.80;12.23;;;;;;;-3.58;90.87;101343.59;5007728;28;20938;-70
2022/12/11 08:09:21;;;;;;;25.70;13.33;;;;;;;-3.59;90.25;101341.84;5009575;28;20461;-73
2022/12/11 08:11:59;;;;;;;21.13;12.03;;;;;;;-3.50;90.75;101350.13;5010187;28;20215;-71
2022/12/11 08:14:27;;;;;;;40.07;22.00;;;;;;;-3.52;91.28;101343.25;5011538;28;20438;-71
2022/12/11 08:16:58;;;;;;;32.57;18.33;;;;;;;-3.54;91.60;101345.59;5012290;28;20187;-70
2022/12/11 08:19:24;;;;;;;27.50;15.40;;;;;;;-3.52;91.97;101340.75;5011214;28;20465;-72
2022/12/11 08:21:56;;;;;;;26.03;13.77;;;;;;;-3.50;92.06;101344.25;5010222;28;20207;-71
2022/12/11 08:24:22;;;;;;;25.83;13.37;;;;;;;-3.47;92.13;101347.88;5010689;28;20442;-72
2022/12/11 08:26:53;;;;;;;36.77;18.93;;;;;;;-3.42;92.14;101353.25;5009414;28;20675;-70
2022/12/11 08:29:19;;;;;;;29.50;16.00;;;;;;;-3.41;92.05;101347.50;5012196;28;20218;-70
2022/12/11 08:31:48;;;;;;;31.33;15.23;;;;;;;-3.41;91.94;101343.38;5008081;28;20723;-72
2022/12/11 08:34:14;;;;;;;26.40;13.80;;;;;;;-3.39;91.68;101331.88;5008518;28;20445;-72
2022/12/11 08:36:46;;;;;;;23.03;12.03;;;;;;;-3.39;91.54;101336.00;5017294;28;20450;-72
2022/12/11 08:39:12;;;;;;;20.27;11.13;;;;;;;-3.36;91.86;101337.09;5005329;28;20250;-71
2022/12/11 08:41:41;;;;;;;20.93;11.80;;;;;;;-3.34;91.66;101334.72;5005686;28;20457;-71
2022/12/11 08:44:15;;;;;;;21.57;11.30;;;;;;;-3.31;92.08;101342.50;5025435;28;20191;-72
2022/12/11 08:46:41;;;;;;;21.80;11.03;;;;;;;-3.27;92.13;101340.34;5011568;28;20194;-71
2022/12/11 08:49:14;;;;;;;20.07;11.10;;;;;;;-3.24;91.59;101335.59;5011796;28;20186;-70
2022/12/11 08:51:48;;;;;;;22.07;11.20;;;;;;;-3.18;91.83;101335.25;5011475;28;20206;-72
2022/12/11 08:54:17;;;;;;;20.50;10.73;;;;;;;-3.19;92.06;101329.34;5010561;28;20229;-71
2022/12/11 08:57:08;;;;;;;20.00;11.63;;;;;;;-3.13;92.26;101332.31;5002810;28;20557;-71
2022/12/11 08:59:39;;;;;;;21.23;11.33;;;;;;;-3.06;91.94;101323.69;5007841;28;20254;-71
2022/12/11 09:02:13;;;;;;;20.07;10.40;;;;;;;-3.02;92.38;101326.56;5004552;28;20215;-71
2022/12/11 09:04:41;;;;;;;22.07;12.53;;;;;;;-2.95;92.45;101317.91;5005876;28;20195;-71
2022/12/11 09:07:11;;;;;;;26.63;14.33;;;;;;;-2.89;92.28;101308.38;5005330;28;20286;-73
2022/12/11 09:09:40;;;;;;;22.20;13.40;;;;;;;-2.87;92.38;101307.75;5009691;28;20207;-71
2022/12/11 09:12:07;;;;;;;23.67;13.57;;;;;;;-2.84;92.23;101305.50;5011250;28;20219;-72
2022/12/11 09:14:34;;;;;;;22.87;14.00;;;;;;;-2.78;91.83;101308.47;5011130;28;20192;-72
2022/12/11 09:17:02;;;;;;;23.80;13.03;;;;;;;-2.72;92.47;101310.59;5007624;28;20189;-71
2022/12/11 09:19:31;;;;;;;23.80;13.63;;;;;;;-2.65;91.82;101312.81;5011221;28;20294;-70
2022/12/11 09:22:00;;;;;;;21.17;12.83;;;;;;;-2.60;91.49;101302.41;5000316;28;20246;-72
2022/12/11 09:24:28;;;;;;;25.17;14.90;;;;;;;-2.53;90.26;101307.13;5000585;28;20199;-72
2022/12/11 09:26:54;;;;;;;22.63;13.70;;;;;;;-2.46;89.71;101309.34;4996571;28;20661;-72
2022/12/11 09:29:23;;;;;;;20.30;12.80;;;;;;;-2.39;89.59;101303.19;5004731;28;20668;-75
2022/12/11 09:31:49;;;;;;;17.83;10.97;;;;;;;-2.31;89.61;101297.09;5011143;28;20220;-72
2022/12/11 09:34:19;;;;;;;18.67;11.33;;;;;;;-2.23;89.58;101301.97;5004993;28;20648;-71
2022/12/11 09:36:45;;;;;;;19.77;11.17;;;;;;;-2.14;89.52;101296.78;5003112;28;20188;-73
2022/12/11 09:39:14;;;;;;;19.73;10.30;;;;;;;-2.02;88.62;101300.22;5003694;28;20226;-73
2022/12/11 09:41:54;;;;;;;16.43;9.53;;;;;;;-1.86;87.40;101290.56;5001974;28;20318;-71
2022/12/11 09:44:40;;;;;;;15.90;9.63;;;;;;;-1.68;86.20;101286.91;5002796;28;20603;-71
2022/12/11 09:47:53;;;;;;;15.80;8.90;;;;;;;-1.41;85.47;101287.31;5000636;28;20291;-71
2022/12/11 09:50:31;;;;;;;18.33;10.47;;;;;;;-1.16;84.18;101279.91;5000131;28;20668;-72
2022/12/11 09:53:17;;;;;;;16.40;10.13;;;;;;;-0.86;83.89;101293.03;5001667;28;20614;-72
2022/12/11 09:55:54;;;;;;;17.70;10.40;;;;;;;-0.63;83.15;101287.97;4998961;28;20615;-71
2022/12/11 09:58:30;;;;;;;14.60;9.13;;;;;;;-0.32;82.19;101289.34;5015977;28;20271;-71
2022/12/11 10:01:12;;;;;;;17.73;10.33;;;;;;;-0.20;81.55;101281.75;5004554;28;20214;-72
2022/12/11 10:04:05;;;;;;;15.27;9.50;;;;;;;0.15;79.24;101270.78;5003288;28;20183;-71
2022/12/11 10:06:59;;;;;;;15.37;8.73;;;;;;;0.38;79.15;101265.63;5003009;28;20241;-73
2022/12/11 10:09:36;;;;;;;16.83;9.77;;;;;;;0.69;77.08;101270.16;5001266;28;20665;-72
2022/12/11 10:12:40;;;;;;;15.80;9.77;;;;;;;0.97;75.63;101272.06;5002045;28;20719;-74
2022/12/11 10:15:21;;;;;;;16.07;9.77;;;;;;;1.34;74.27;101263.50;4988099;28;20603;-73
2022/12/11 10:17:58;;;;;;;14.07;8.87;;;;;;;1.69;74.14;101261.47;5001235;28;20767;-72
2022/12/11 10:20:40;;;;;;;16.63;9.27;;;;;;;2.02;73.09;101263.50;5000294;28;20222;-73
2022/12/11 10:23:08;;;;;;;16.60;10.03;;;;;;;2.11;70.98;101258.13;5009396;28;20564;-72
2022/12/11 10:25:55;;;;;;;16.53;10.00;;;;;;;2.95;70.19;101251.25;5004340;28;20266;-72
2022/12/11 10:28:21;;;;;;;13.73;9.13;;;;;;;8.03;54.31;101215.66;5004565;28;20182;-72
2022/12/11 10:31:08;;;;;;;14.67;9.33;;;;;;;9.96;46.83;101204.81;5004699;28;20184;-72
2022/12/11 10:33:58;;;;;;;12.83;8.97;;;;;;;7.50;49.90;101212.84;5015898;28;20182;-72
2022/12/11 10:36:42;;;;;;;13.60;9.07;;;;;;;5.51;54.94;101218.00;5007255;28;20321;-71
2022/12/11 10:39:19;;;;;;;13.50;9.27;;;;;;;4.19;57.32;101225.91;5009219;28;20245;-72
2022/12/11 10:41:50;;;;;;;12.27;8.47;;;;;;;4.22;57.54;101224.41;5019873;28;20214;-73
2022/12/11 10:44:30;;;;;;;13.17;8.57;;;;;;;4.86;57.63;101221.69;4998467;28;20242;-72
2022/12/11 10:47:17;;;;;;;12.77;8.70;;;;;;;5.00;57.31;101220.69;4995442;28;20246;-72
2022/12/11 10:49:57;;;;;;;11.33;7.57;;;;;;;4.41;54.83;101216.91;5004928;28;20186;-70
2022/12/11 10:52:52;;;;;;;13.30;9.07;;;;;;;5.44;55.42;101213.44;5008762;28;20207;-74
2022/12/11 10:55:21;;;;;;;14.37;8.90;;;;;;;4.85;54.64;101214.88;5002898;28;20215;-71
2022/12/11 10:57:55;;;;;;;12.30;8.57;;;;;;;5.51;54.88;101210.38;5007988;28;20187;-72
2022/12/11 11:00:39;;;;;;;12.57;8.87;;;;;;;9.23;47.94;101191.63;5009574;28;20217;-72
2022/12/11 11:03:43;;;;;;;16.90;11.77;;;;;;;13.33;38.77;101169.19;5009655;28;20197;-72
2022/12/11 11:06:20;;;;;;;14.50;10.07;;;;;;;14.62;34.87;101160.31;5007831;28;20201;-72
2022/12/11 11:08:53;;;;;;;17.90;11.47;;;;;;;14.32;35.05;101171.22;5009467;28;20179;-72
2022/12/11 11:11:31;;;;;;;11.47;9.67;;;;;;;13.85;34.58;101177.56;5008397;28;20292;-72
2022/12/11 11:14:21;;;;;;;12.13;9.30;;;;;;;14.48;34.70;101169.66;5002768;28;20210;-72
2022/12/11 11:16:53;;;;;;;12.23;9.83;;;;;;;13.74;35.92;101174.03;5001215;28;20175;-72
2022/12/11 11:19:34;;;;;;;11.43;9.43;;;;;;;14.44;34.44;101167.91;5006256;28;20207;-73
2022/12/11 11:22:11;;;;;;;11.87;9.03;;;;;;;14.45;33.79;101169.66;5007754;28;20230;-74
2022/12/11 11:24:53;;;;;;;11.13;9.23;;;;;;;13.00;34.72;101177.31;5009527;28;20191;-74
2022/12/11 11:27:38;;;;;;;11.30;9.33;;;;;;;11.44;35.97;101184.63;5002714;28;20238;-74
2022/12/11 11:30:17;;;;;;;10.07;8.97;;;;;;;12.56;35.62;101158.59;5007879;28;20217;-73
2022/12/11 11:32:56;;;;;;;10.27;8.60;;;;;;;13.79;34.77;101158.63;5004652;28;20586;-71
2022/12/11 11:35:30;;;;;;;11.47;9.63;;;;;;;13.41;34.25;101160.75;5016224;28;20195;-71
2022/12/11 11:38:09;;;;;;;12.93;9.77;;;;;;;12.97;35.21;101154.09;4999666;28;20193;-72
2022/12/11 11:40:48;;;;;;;11.87;9.63;;;;;;;12.73;35.59;101146.84;5004217;28;20215;-72
2022/12/11 11:43:57;;;;;;;10.27;9.07;;;;;;;12.98;35.29;101149.84;5003874;28;20187;-72
2022/12/11 11:47:13;;;;;;;12.43;11.07;;;;;;;13.49;35.54;101155.69;5004001;28;20221;-72
2022/12/11 11:49:57;;;;;;;10.10;8.97;;;;;;;12.12;36.52;101156.94;4983589;28;20245;-71
2022/12/11 11:53:04;;;;;;;11.60;9.40;;;;;;;11.45;36.24;101158.16;4974322;28;20243;-71
2022/12/11 11:55:48;;;;;;;10.33;8.53;;;;;;;12.58;37.05;101149.19;4958214;28;20210;-71